Time;durP1;ratioP1;P1;durP2;ratioP2;P2;SDS_P1;SDS_P2;PMS_P1;PMS_P2;Temp;Humidity;BMP_temperature;BMP_pressure;BME280_temperature;BME280_humidity;BME280_pressure;Samples;Min_cycle;Max_cycle;Signal;HPM_P1;HPM_P2
2023/12/28 00:00:12;;;;;;;5.80;2.63;;;;;;;;;;5074136;28;20044;-70
2023/12/28 00:02:38;;;;;;;4.43;2.50;;;;;;;;;;5073697;28;20041;-70
2023/12/28 00:05:04;;;;;;;6.35;2.80;;;;;;;;;;5072884;28;20516;-70
2023/12/28 00:07:30;;;;;;;4.60;2.70;;;;;;;;;;5072642;28;20052;-70
2023/12/28 00:09:56;;;;;;;8.02;2.72;;;;;;;;;;5073517;28;20041;-70
2023/12/28 00:12:22;;;;;;;5.55;3.10;;;;;;;;;;5072577;28;20037;-70
2023/12/28 00:14:48;;;;;;;6.20;2.42;;;;;;;;;;5072301;28;20039;-70
2023/12/28 00:17:15;;;;;;;4.07;2.55;;;;;;;;;;5073771;28;20048;-70
2023/12/28 00:19:41;;;;;;;5.90;2.97;;;;;;;;;;5072317;28;20048;-70
2023/12/28 00:22:06;;;;;;;4.78;2.67;;;;;;;;;;5073697;28;20051;-70
2023/12/28 00:24:33;;;;;;;7.28;2.70;;;;;;;;;;5072215;28;20052;-70
2023/12/28 00:26:58;;;;;;;6.18;2.75;;;;;;;;;;5072167;28;20055;-70
2023/12/28 00:29:24;;;;;;;4.35;2.60;;;;;;;;;;5071832;28;20040;-70
2023/12/28 00:31:50;;;;;;;5.97;2.78;;;;;;;;;;5073570;28;20036;-70
2023/12/28 00:34:16;;;;;;;8.98;2.90;;;;;;;;;;5073589;28;20455;-70
2023/12/28 00:36:42;;;;;;;5.25;3.22;;;;;;;;;;5072072;28;20036;-70
2023/12/28 00:39:08;;;;;;;7.47;2.85;;;;;;;;;;5072017;28;20089;-70
2023/12/28 00:41:34;;;;;;;6.50;3.10;;;;;;;;;;5072156;28;20044;-70
2023/12/28 00:44:02;;;;;;;7.68;2.95;;;;;;;;;;5071974;28;20517;-70
2023/12/28 00:46:28;;;;;;;6.18;3.25;;;;;;;;;;5071895;28;20554;-70
2023/12/28 00:48:54;;;;;;;9.20;2.95;;;;;;;;;;5071861;28;20045;-70
2023/12/28 00:51:21;;;;;;;6.13;3.00;;;;;;;;;;5072122;28;20041;-70
2023/12/28 00:53:47;;;;;;;4.93;2.60;;;;;;;;;;5071727;28;20573;-70
2023/12/28 00:56:13;;;;;;;7.63;2.80;;;;;;;;;;5071799;28;20122;-70
2023/12/28 00:58:40;;;;;;;5.65;3.20;;;;;;;;;;5071814;28;20079;-70
2023/12/28 01:01:06;;;;;;;6.68;2.75;;;;;;;;;;5072020;28;20079;-70
2023/12/28 01:03:32;;;;;;;7.15;2.70;;;;;;;;;;5072890;28;20579;-70
2023/12/28 01:05:58;;;;;;;5.57;3.33;;;;;;;;;;5071687;28;20055;-70
2023/12/28 01:08:24;;;;;;;8.95;3.17;;;;;;;;;;5071674;28;20493;-70
2023/12/28 01:10:50;;;;;;;7.15;3.20;;;;;;;;;;5072899;28;20119;-70
2023/12/28 01:13:16;;;;;;;8.52;3.25;;;;;;;;;;5071619;28;20040;-70
2023/12/28 01:15:42;;;;;;;9.43;3.17;;;;;;;;;;5071631;28;20036;-70
2023/12/28 01:18:08;;;;;;;5.90;2.63;;;;;;;;;;5071618;28;20051;-70
2023/12/28 01:20:34;;;;;;;10.25;3.38;;;;;;;;;;5071610;28;20551;-70
2023/12/28 01:23:00;;;;;;;8.98;3.38;;;;;;;;;;5072995;28;20045;-70
2023/12/28 01:25:26;;;;;;;6.85;3.15;;;;;;;;;;5071607;28;20544;-70
2023/12/28 01:27:52;;;;;;;7.45;2.92;;;;;;;;;;5072977;28;20040;-70
2023/12/28 01:30:18;;;;;;;8.60;2.88;;;;;;;;;;5071804;28;20152;-70
2023/12/28 01:32:44;;;;;;;8.18;3.00;;;;;;;;;;5072986;28;20517;-70
2023/12/28 01:35:10;;;;;;;11.88;3.10;;;;;;;;;;5073030;28;20161;-70
2023/12/28 01:37:36;;;;;;;8.18;2.97;;;;;;;;;;5072981;28;20374;-70
2023/12/28 01:40:03;;;;;;;10.57;3.35;;;;;;;;;;5073602;28;20040;-70
2023/12/28 01:42:31;;;;;;;8.13;2.70;;;;;;;;;;5075206;28;20052;-70
2023/12/28 01:44:57;;;;;;;8.40;2.80;;;;;;;;;;5075190;28;20057;-70
2023/12/28 01:47:24;;;;;;;9.32;3.00;;;;;;;;;;5076597;28;20036;-70
2023/12/28 01:49:50;;;;;;;10.35;3.53;;;;;;;;;;5076601;28;20124;-70
2023/12/28 01:52:16;;;;;;;13.23;3.28;;;;;;;;;;5074996;28;20044;-70
2023/12/28 01:54:42;;;;;;;9.68;2.95;;;;;;;;;;5075014;28;20044;-70
2023/12/28 01:57:08;;;;;;;8.57;3.05;;;;;;;;;;5076469;28;20086;-70
2023/12/28 01:59:34;;;;;;;9.60;2.80;;;;;;;;;;5076425;28;20045;-70
2023/12/28 02:02:01;;;;;;;9.07;3.20;;;;;;;;;;5074937;28;20033;-70
2023/12/28 02:04:28;;;;;;;12.18;3.25;;;;;;;;;;5076091;28;20475;-70
2023/12/28 02:06:58;;;;;;;11.30;3.08;;;;;;;;;;5074813;28;20120;-70
2023/12/28 02:09:25;;;;;;;9.77;3.03;;;;;;;;;;5074988;28;20502;-70
2023/12/28 02:11:51;;;;;;;12.30;3.72;;;;;;;;;;5074696;28;20056;-70
2023/12/28 02:14:17;;;;;;;12.82;3.13;;;;;;;;;;5074909;28;20040;-70
2023/12/28 02:16:47;;;;;;;10.32;3.10;;;;;;;;;;5076146;28;20040;-70
2023/12/28 02:19:33;;;;;;;10.60;3.13;;;;;;;;;;5074888;28;20040;-70
2023/12/28 02:22:00;;;;;;;11.52;2.88;;;;;;;;;;5074509;28;20515;-70
2023/12/28 02:24:25;;;;;;;14.40;2.90;;;;;;;;;;5074531;28;20045;-70
2023/12/28 02:26:51;;;;;;;14.40;3.05;;;;;;;;;;5075977;28;20161;-70
2023/12/28 02:29:19;;;;;;;9.20;2.55;;;;;;;;;;5074320;28;20420;-70
2023/12/28 02:31:51;;;;;;;10.13;2.70;;;;;;;;;;5075793;28;20041;-70
2023/12/28 02:34:21;;;;;;;11.27;2.95;;;;;;;;;;5074554;28;20055;-70
2023/12/28 02:36:48;;;;;;;9.77;2.83;;;;;;;;;;5075747;28;20036;-70
2023/12/28 02:39:15;;;;;;;10.25;3.05;;;;;;;;;;5074187;28;20045;-70
2023/12/28 02:41:42;;;;;;;12.90;2.90;;;;;;;;;;5075615;28;20123;-70
2023/12/28 02:44:08;;;;;;;8.75;2.83;;;;;;;;;;5074123;28;20056;-70
2023/12/28 02:46:34;;;;;;;9.93;2.67;;;;;;;;;;5074356;28;20059;-70
2023/12/28 02:49:00;;;;;;;14.20;2.65;;;;;;;;;;5073947;28;20629;-70
2023/12/28 02:51:26;;;;;;;12.00;2.92;;;;;;;;;;5073828;28;20040;-70
2023/12/28 02:53:52;;;;;;;10.75;2.40;;;;;;;;;;5073842;28;20090;-70
2023/12/28 02:56:18;;;;;;;15.35;2.92;;;;;;;;;;5073914;28;20037;-70
2023/12/28 02:58:44;;;;;;;17.13;3.22;;;;;;;;;;5075380;28;20044;-70
2023/12/28 03:01:10;;;;;;;10.05;2.15;;;;;;;;;;5057151;28;20040;-70
2023/12/28 03:03:36;;;;;;;12.20;2.40;;;;;;;;;;5073525;28;20051;-70
2023/12/28 03:06:02;;;;;;;12.27;2.25;;;;;;;;;;5057042;28;20083;-70
2023/12/28 03:08:28;;;;;;;8.93;2.30;;;;;;;;;;5073535;28;20086;-70
2023/12/28 03:10:55;;;;;;;12.80;2.45;;;;;;;;;;5073595;28;20045;-70
2023/12/28 03:13:21;;;;;;;15.30;2.75;;;;;;;;;;5074994;28;20032;-70
2023/12/28 03:15:47;;;;;;;12.55;2.83;;;;;;;;;;5075054;28;20044;-70
2023/12/28 03:18:13;;;;;;;11.52;3.13;;;;;;;;;;5075043;28;20058;-70
2023/12/28 03:20:39;;;;;;;9.38;2.08;;;;;;;;;;5073419;28;20123;-70
2023/12/28 03:23:05;;;;;;;12.80;2.63;;;;;;;;;;5074582;28;20047;-70
2023/12/28 03:25:31;;;;;;;12.98;2.65;;;;;;;;;;5073332;28;20119;-70
2023/12/28 03:27:57;;;;;;;14.27;2.40;;;;;;;;;;5073194;28;20054;-70
2023/12/28 03:30:23;;;;;;;13.38;2.70;;;;;;;;;;5074440;28;20055;-70
2023/12/28 03:32:49;;;;;;;12.63;2.33;;;;;;;;;;5074613;28;20042;-70
2023/12/28 03:35:15;;;;;;;8.32;2.53;;;;;;;;;;5074637;28;20040;-70
2023/12/28 03:37:40;;;;;;;12.75;2.28;;;;;;;;;;5074596;28;20082;-70
2023/12/28 03:40:07;;;;;;;12.18;2.67;;;;;;;;;;5072993;28;20075;-70
2023/12/28 03:42:33;;;;;;;8.40;2.33;;;;;;;;;;5074450;28;20048;-70
2023/12/28 03:44:59;;;;;;;8.75;2.53;;;;;;;;;;5072914;28;20044;-70
2023/12/28 03:47:25;;;;;;;11.25;2.33;;;;;;;;;;5073042;28;20052;-70
2023/12/28 03:49:51;;;;;;;14.50;2.80;;;;;;;;;;5072818;28;20082;-70
2023/12/28 03:52:17;;;;;;;10.98;2.38;;;;;;;;;;5072743;28;20076;-70
2023/12/28 03:54:43;;;;;;;10.40;2.42;;;;;;;;;;5072695;28;20036;-70
2023/12/28 03:57:10;;;;;;;10.25;2.33;;;;;;;;;;5073860;28;20162;-70
2023/12/28 03:59:36;;;;;;;13.00;2.97;;;;;;;;;;5074180;28;20047;-70
2023/12/28 04:02:02;;;;;;;13.75;3.00;;;;;;;;;;5073637;28;20036;-70
2023/12/28 04:04:28;;;;;;;11.65;2.65;;;;;;;;;;5073804;28;20056;-70
2023/12/28 04:06:54;;;;;;;10.10;2.92;;;;;;;;;;5072475;28;20032;-70
2023/12/28 04:09:20;;;;;;;12.50;3.65;;;;;;;;;;5073874;28;20051;-70
2023/12/28 04:11:46;;;;;;;10.88;2.33;;;;;;;;;;5072346;28;20048;-70
2023/12/28 04:14:12;;;;;;;10.35;2.13;;;;;;;;;;5073852;28;20045;-70
2023/12/28 04:16:38;;;;;;;17.40;3.45;;;;;;;;;;5073902;28;20067;-70
2023/12/28 04:19:04;;;;;;;9.45;2.67;;;;;;;;;;5072299;28;20123;-70
2023/12/28 04:21:30;;;;;;;10.50;2.50;;;;;;;;;;5072271;28;20044;-70
2023/12/28 04:23:57;;;;;;;13.00;2.97;;;;;;;;;;5073736;28;20090;-70
2023/12/28 04:26:23;;;;;;;10.77;2.55;;;;;;;;;;5072223;28;20059;-70
2023/12/28 04:28:49;;;;;;;14.57;2.72;;;;;;;;;;5072116;28;20052;-70
2023/12/28 04:31:15;;;;;;;11.70;2.60;;;;;;;;;;5073646;28;20054;-70
2023/12/28 04:33:41;;;;;;;16.88;2.83;;;;;;;;;;5072032;28;20059;-70
2023/12/28 04:36:07;;;;;;;10.93;2.20;;;;;;;;;;5072015;28;20517;-70
2023/12/28 04:38:33;;;;;;;13.93;2.53;;;;;;;;;;5055302;28;20459;-70
2023/12/28 04:41:00;;;;;;;12.68;2.80;;;;;;;;;;5073267;28;20120;-70
2023/12/28 04:43:26;;;;;;;10.82;2.55;;;;;;;;;;5071900;28;20497;-70
2023/12/28 04:45:52;;;;;;;13.48;2.47;;;;;;;;;;5072222;28;20040;-70
2023/12/28 04:48:20;;;;;;;12.52;2.70;;;;;;;;;;5071835;28;20078;-70
2023/12/28 04:50:47;;;;;;;19.98;2.72;;;;;;;;;;5073377;28;20079;-70
2023/12/28 04:53:13;;;;;;;13.60;2.67;;;;;;;;;;5073289;28;20090;-70
2023/12/28 04:55:40;;;;;;;15.32;2.70;;;;;;;;;;5071828;28;20044;-70
2023/12/28 04:58:06;;;;;;;16.95;3.13;;;;;;;;;;5071821;28;20147;-70
2023/12/28 05:00:32;;;;;;;12.63;2.78;;;;;;;;;;5073006;28;20111;-70
2023/12/28 05:02:57;;;;;;;13.25;2.25;;;;;;;;;;5071602;28;20063;-70
2023/12/28 05:05:23;;;;;;;19.63;2.88;;;;;;;;;;5071948;28;20059;-70
2023/12/28 05:07:50;;;;;;;12.02;2.88;;;;;;;;;;5071691;28;20127;-70
2023/12/28 05:10:16;;;;;;;16.95;3.13;;;;;;;;;;5073300;28;20033;-70
2023/12/28 05:12:42;;;;;;;11.60;3.13;;;;;;;;;;5073741;28;20072;-70
2023/12/28 05:15:08;;;;;;;13.70;3.03;;;;;;;;;;5072746;28;20079;-70
2023/12/28 05:17:34;;;;;;;14.13;2.95;;;;;;;;;;5075776;28;20467;-70
2023/12/28 05:20:00;;;;;;;13.15;2.60;;;;;;;;;;5077224;28;20128;-70
2023/12/28 05:22:26;;;;;;;12.85;2.92;;;;;;;;;;5075904;28;20044;-71
2023/12/28 05:24:52;;;;;;;13.43;3.08;;;;;;;;;;5075592;28;20532;-70
2023/12/28 05:27:18;;;;;;;14.00;3.03;;;;;;;;;;5076691;28;20437;-70
2023/12/28 05:29:44;;;;;;;14.40;2.63;;;;;;;;;;5075512;28;20425;-70
2023/12/28 05:32:10;;;;;;;18.95;2.80;;;;;;;;;;5076944;28;20037;-70
2023/12/28 05:34:36;;;;;;;16.75;2.92;;;;;;;;;;5075483;28;20044;-70
2023/12/28 05:37:02;;;;;;;14.75;2.80;;;;;;;;;;5075632;28;20043;-70
2023/12/28 05:39:28;;;;;;;15.98;3.08;;;;;;;;;;5075368;28;20139;-70
2023/12/28 05:41:54;;;;;;;15.55;2.95;;;;;;;;;;5075442;28;20097;-70
2023/12/28 05:44:20;;;;;;;23.40;3.53;;;;;;;;;;5075291;28;20055;-70
2023/12/28 05:46:46;;;;;;;13.98;2.97;;;;;;;;;;5075209;28;20051;-70
2023/12/28 05:49:12;;;;;;;11.23;2.70;;;;;;;;;;5076323;28;20044;-70
2023/12/28 05:51:42;;;;;;;13.13;2.67;;;;;;;;;;5076526;28;20039;-70
2023/12/28 05:54:08;;;;;;;18.17;3.17;;;;;;;;;;5076566;28;20238;-70
2023/12/28 05:56:35;;;;;;;14.05;3.15;;;;;;;;;;5075005;28;20068;-70
2023/12/28 05:59:01;;;;;;;14.23;2.85;;;;;;;;;;5077302;28;20044;-70
2023/12/28 06:01:27;;;;;;;16.75;3.05;;;;;;;;;;5076469;28;20401;-70
2023/12/28 06:03:54;;;;;;;13.82;2.70;;;;;;;;;;5074649;28;20040;-70
2023/12/28 06:06:20;;;;;;;16.95;3.28;;;;;;;;;;5074851;28;20044;-70
2023/12/28 06:08:46;;;;;;;16.00;3.42;;;;;;;;;;5074734;28;20080;-70
2023/12/28 06:11:12;;;;;;;15.55;3.17;;;;;;;;;;5074986;28;20044;-70
2023/12/28 06:13:38;;;;;;;19.20;3.40;;;;;;;;;;5075810;28;20413;-70
2023/12/28 06:16:04;;;;;;;17.58;2.72;;;;;;;;;;5076175;28;20044;-70
2023/12/28 06:18:31;;;;;;;11.43;2.53;;;;;;;;;;5074598;28;20052;-70
2023/12/28 06:20:57;;;;;;;14.98;2.80;;;;;;;;;;5075802;28;20563;-70
2023/12/28 06:23:23;;;;;;;21.35;3.28;;;;;;;;;;5074807;28;20135;-70
2023/12/28 06:25:49;;;;;;;18.30;3.15;;;;;;;;;;5073896;28;20469;-70
2023/12/28 06:28:15;;;;;;;15.27;3.10;;;;;;;;;;5075824;28;20037;-70
2023/12/28 06:30:41;;;;;;;16.90;2.80;;;;;;;;;;5074411;28;20082;-70
2023/12/28 06:33:08;;;;;;;13.43;2.88;;;;;;;;;;5074302;28;20123;-70
2023/12/28 06:35:34;;;;;;;17.58;2.95;;;;;;;;;;5075786;28;20065;-70
2023/12/28 06:38:00;;;;;;;18.10;2.88;;;;;;;;;;5074487;28;20048;-70
2023/12/28 06:40:26;;;;;;;15.23;2.75;;;;;;;;;;5074557;28;20036;-70
2023/12/28 06:42:52;;;;;;;16.65;3.30;;;;;;;;;;5074045;28;20520;-70
2023/12/28 06:45:18;;;;;;;15.95;2.90;;;;;;;;;;5074136;28;20044;-70
2023/12/28 06:47:44;;;;;;;14.65;2.83;;;;;;;;;;5074238;28;20055;-70
2023/12/28 06:50:10;;;;;;;11.70;2.58;;;;;;;;;;5074053;28;20094;-70
2023/12/28 06:52:36;;;;;;;24.02;3.42;;;;;;;;;;5073938;28;20044;-70
2023/12/28 06:55:02;;;;;;;16.98;3.25;;;;;;;;;;5073963;28;20044;-70
2023/12/28 06:57:28;;;;;;;17.25;3.20;;;;;;;;;;5073907;28;20505;-70
2023/12/28 06:59:54;;;;;;;15.60;3.10;;;;;;;;;;5073854;28;20098;-70
2023/12/28 07:02:20;;;;;;;15.45;3.40;;;;;;;;;;5075131;28;20123;-70
2023/12/28 07:04:46;;;;;;;20.42;3.30;;;;;;;;;;5074042;28;20032;-70
2023/12/28 07:07:12;;;;;;;16.63;2.85;;;;;;;;;;5075727;28;20389;-70
2023/12/28 07:09:38;;;;;;;14.57;3.20;;;;;;;;;;5073665;28;20079;-70
2023/12/28 07:12:04;;;;;;;15.15;3.35;;;;;;;;;;5073593;28;20073;-70
2023/12/28 07:14:30;;;;;;;17.92;2.80;;;;;;;;;;5073517;28;20537;-70
2023/12/28 07:16:56;;;;;;;14.13;3.50;;;;;;;;;;5073512;28;20531;-70
2023/12/28 07:19:22;;;;;;;19.35;3.38;;;;;;;;;;5073525;28;20068;-69
2023/12/28 07:21:48;;;;;;;16.23;4.00;;;;;;;;;;5074870;28;20044;-69
2023/12/28 07:24:14;;;;;;;22.00;3.28;;;;;;;;;;5073395;28;20390;-69
2023/12/28 07:26:40;;;;;;;20.45;3.72;;;;;;;;;;5073538;28;20051;-69
2023/12/28 07:29:06;;;;;;;16.77;3.28;;;;;;;;;;5073185;28;20102;-69
2023/12/28 07:31:32;;;;;;;16.75;3.40;;;;;;;;;;5073154;28;20041;-69
2023/12/28 07:33:58;;;;;;;17.95;3.47;;;;;;;;;;5073124;28;20056;-69
2023/12/28 07:36:24;;;;;;;17.50;3.50;;;;;;;;;;5074668;28;20048;-69
2023/12/28 07:38:50;;;;;;;22.90;3.78;;;;;;;;;;5072216;28;20048;-70
2023/12/28 07:41:16;;;;;;;23.00;4.13;;;;;;;;;;5074622;28;20127;-70
2023/12/28 07:43:42;;;;;;;18.48;3.78;;;;;;;;;;5074200;28;20039;-69
2023/12/28 07:46:08;;;;;;;17.13;3.40;;;;;;;;;;5072964;28;20480;-70
2023/12/28 07:48:34;;;;;;;16.70;3.28;;;;;;;;;;5072929;28;20078;-70
2023/12/28 07:51:07;;;;;;;16.83;3.25;;;;;;;;;;5074410;28;20177;-69
2023/12/28 07:53:33;;;;;;;20.40;4.20;;;;;;;;;;5073122;28;20517;-69
2023/12/28 07:55:59;;;;;;;21.27;3.70;;;;;;;;;;5072704;28;20783;-69
2023/12/28 07:58:25;;;;;;;22.42;3.85;;;;;;;;;;5074293;28;20045;-69
2023/12/28 08:00:51;;;;;;;21.27;3.60;;;;;;;;;;5074184;28;20120;-71
2023/12/28 08:03:17;;;;;;;21.40;3.70;;;;;;;;;;5073832;28;20153;-69
2023/12/28 08:05:43;;;;;;;18.83;3.70;;;;;;;;;;5074264;28;20061;-69
2023/12/28 08:08:09;;;;;;;22.85;4.10;;;;;;;;;;5072558;28;20041;-70
2023/12/28 08:10:35;;;;;;;20.13;4.53;;;;;;;;;;5072812;28;20047;-70
2023/12/28 08:13:01;;;;;;;27.33;5.00;;;;;;;;;;5055844;28;20587;-71
2023/12/28 08:15:27;;;;;;;22.75;3.80;;;;;;;;;;5073883;28;20119;-71
2023/12/28 08:17:53;;;;;;;18.35;4.32;;;;;;;;;;5072414;28;20040;-71
2023/12/28 08:20:19;;;;;;;21.60;4.07;;;;;;;;;;5073762;28;20091;-71
2023/12/28 08:22:45;;;;;;;24.38;4.60;;;;;;;;;;5073729;28;20040;-71
2023/12/28 08:25:11;;;;;;;23.00;4.10;;;;;;;;;;5072207;28;20444;-71
2023/12/28 08:27:37;;;;;;;19.40;3.92;;;;;;;;;;5072149;28;20134;-71
2023/12/28 08:30:04;;;;;;;25.92;4.35;;;;;;;;;;5073317;28;20076;-71
2023/12/28 08:32:30;;;;;;;26.35;4.35;;;;;;;;;;5072105;28;20510;-71
2023/12/28 08:34:56;;;;;;;30.55;5.50;;;;;;;;;;5072062;28;20489;-71
2023/12/28 08:37:22;;;;;;;22.40;4.57;;;;;;;;;;5072064;28;20040;-71
2023/12/28 08:39:48;;;;;;;25.15;3.95;;;;;;;;;;5072099;28;20040;-70
2023/12/28 08:42:14;;;;;;;23.67;3.97;;;;;;;;;;5073497;28;20144;-71
2023/12/28 08:44:40;;;;;;;24.02;4.65;;;;;;;;;;5072098;28;20040;-71
2023/12/28 08:47:06;;;;;;;25.00;4.85;;;;;;;;;;5055579;28;20036;-74
2023/12/28 08:49:33;;;;;;;26.67;5.07;;;;;;;;;;5073179;28;20447;-72
2023/12/28 08:51:59;;;;;;;26.48;4.90;;;;;;;;;;5073394;28;20076;-70
2023/12/28 08:54:25;;;;;;;22.00;4.35;;;;;;;;;;5072055;28;20117;-71
2023/12/28 08:56:51;;;;;;;31.05;5.30;;;;;;;;;;5073540;28;20033;-71
2023/12/28 08:59:17;;;;;;;28.90;5.95;;;;;;;;;;5073408;28;20485;-71
2023/12/28 09:01:43;;;;;;;24.08;4.22;;;;;;;;;;5071637;28;20052;-71
2023/12/28 09:04:09;;;;;;;25.02;4.60;;;;;;;;;;5072006;28;20052;-71
2023/12/28 09:06:35;;;;;;;26.20;5.25;;;;;;;;;;5073313;28;20075;-71
2023/12/28 09:09:01;;;;;;;25.58;4.45;;;;;;;;;;5071764;28;20048;-70
2023/12/28 09:11:28;;;;;;;30.17;4.97;;;;;;;;;;5072039;28;20040;-70
2023/12/28 09:13:54;;;;;;;29.15;4.82;;;;;;;;;;5071949;28;20090;-70
2023/12/28 09:16:20;;;;;;;29.80;5.10;;;;;;;;;;5071748;28;20040;-71
2023/12/28 09:18:46;;;;;;;27.92;4.78;;;;;;;;;;5073309;28;20094;-71
2023/12/28 09:21:13;;;;;;;24.42;5.57;;;;;;;;;;5071717;28;20055;-70
2023/12/28 09:23:41;;;;;;;31.77;4.93;;;;;;;;;;5071862;28;20040;-71
2023/12/28 09:26:07;;;;;;;22.60;4.10;;;;;;;;;;5054946;28;20130;-71
2023/12/28 09:28:33;;;;;;;29.13;4.95;;;;;;;;;;5071713;28;20528;-71
2023/12/28 09:31:01;;;;;;;23.10;3.60;;;;;;;;;;5073134;28;20043;-70
2023/12/28 09:33:27;;;;;;;21.75;4.28;;;;;;;;;;5072150;28;20163;-70
2023/12/28 09:35:53;;;;;;;25.50;4.93;;;;;;;;;;5071606;28;20123;-70
2023/12/28 09:38:19;;;;;;;30.42;4.57;;;;;;;;;;5071601;28;20041;-71
2023/12/28 09:40:45;;;;;;;19.17;3.80;;;;;;;;;;5073149;28;20036;-71
2023/12/28 09:43:20;;;;;;;23.73;4.72;;;;;;;;;;5072894;28;20037;-71
2023/12/28 09:45:47;;;;;;;24.63;4.50;;;;;;;;;;5071428;28;20044;-70
2023/12/28 09:48:16;;;;;;;20.60;4.60;;;;;;;;;;5071457;28;20045;-71
2023/12/28 09:50:42;;;;;;;23.05;4.50;;;;;;;;;;5071636;28;20041;-71
2023/12/28 09:53:07;;;;;;;19.88;3.95;;;;;;;;;;5071314;28;20043;-71
2023/12/28 09:55:33;;;;;;;23.25;4.55;;;;;;;;;;5071696;28;20037;-70
2023/12/28 09:58:00;;;;;;;28.02;5.15;;;;;;;;;;5071379;28;20413;-70
2023/12/28 10:00:26;;;;;;;31.98;5.22;;;;;;;;;;5071522;28;20532;-71
2023/12/28 10:02:52;;;;;;;23.23;4.47;;;;;;;;;;5075921;28;20084;-71
2023/12/28 10:05:19;;;;;;;30.73;4.60;;;;;;;;;;5076469;28;20571;-70
2023/12/28 10:07:45;;;;;;;24.67;4.25;;;;;;;;;;5074783;28;20048;-70
2023/12/28 10:10:12;;;;;;;23.98;4.15;;;;;;;;;;5076307;28;20072;-70
2023/12/28 10:12:38;;;;;;;27.67;4.57;;;;;;;;;;5075043;28;20493;-71
2023/12/28 10:15:07;;;;;;;24.20;4.43;;;;;;;;;;5058099;28;20082;-70
2023/12/28 10:17:35;;;;;;;20.25;4.95;;;;;;;;;;5074832;28;20041;-70
2023/12/28 10:20:06;;;;;;;28.02;4.97;;;;;;;;;;5074629;28;20508;-70
2023/12/28 10:22:32;;;;;;;23.85;4.28;;;;;;;;;;5076020;28;20075;-69
2023/12/28 10:24:59;;;;;;;26.23;4.85;;;;;;;;;;5074543;28;20052;-69
2023/12/28 10:27:26;;;;;;;22.42;4.43;;;;;;;;;;5074440;28;20497;-69
2023/12/28 10:29:54;;;;;;;23.00;4.00;;;;;;;;;;5075970;28;20040;-69
2023/12/28 10:32:20;;;;;;;25.67;4.32;;;;;;;;;;5074268;28;20417;-69
2023/12/28 10:34:46;;;;;;;21.92;4.75;;;;;;;;;;5075859;28;20033;-69
2023/12/28 10:37:13;;;;;;;20.13;3.90;;;;;;;;;;5057890;28;20044;-69
2023/12/28 10:39:40;;;;;;;21.67;4.88;;;;;;;;;;5074304;28;20171;-69
2023/12/28 10:42:09;;;;;;;24.52;4.25;;;;;;;;;;5076002;28;20103;-69
2023/12/28 10:44:38;;;;;;;20.35;3.60;;;;;;;;;;5074264;28;20400;-69
2023/12/28 10:47:06;;;;;;;23.90;4.97;;;;;;;;;;5075418;28;20032;-69
2023/12/28 10:49:33;;;;;;;23.80;4.05;;;;;;;;;;5073993;28;20067;-69
2023/12/28 10:52:00;;;;;;;22.67;5.15;;;;;;;;;;5075679;28;20079;-69
2023/12/28 10:54:26;;;;;;;19.08;3.72;;;;;;;;;;5075684;28;20066;-70
2023/12/28 10:57:11;;;;;;;25.27;4.35;;;;;;;;;;5074021;28;20066;-70
2023/12/28 10:59:45;;;;;;;18.33;4.18;;;;;;;;;;5075303;28;20389;-70
2023/12/28 11:02:12;;;;;;;24.77;3.70;;;;;;;;;;5073851;28;20127;-70
2023/12/28 11:04:48;;;;;;;21.85;4.05;;;;;;;;;;5074215;28;20080;-70
2023/12/28 11:07:15;;;;;;;23.98;4.68;;;;;;;;;;5074193;28;20448;-70
2023/12/28 11:09:42;;;;;;;22.33;4.55;;;;;;;;;;5073669;28;20083;-70
2023/12/28 11:12:11;;;;;;;25.63;4.57;;;;;;;;;;5073591;28;20037;-70
2023/12/28 11:14:40;;;;;;;17.48;3.97;;;;;;;;;;5073761;28;20040;-70
2023/12/28 11:17:06;;;;;;;23.98;4.10;;;;;;;;;;5073662;28;20036;-70
2023/12/28 11:19:35;;;;;;;19.73;4.07;;;;;;;;;;5074112;28;20133;-70
2023/12/28 11:22:06;;;;;;;26.88;5.60;;;;;;;;;;5073866;28;20055;-71
2023/12/28 11:24:32;;;;;;;21.58;3.80;;;;;;;;;;5057132;28;20090;-70
2023/12/28 11:26:58;;;;;;;21.95;4.20;;;;;;;;;;5075108;28;20044;-70
2023/12/28 11:29:25;;;;;;;25.77;5.20;;;;;;;;;;5074907;28;20044;-70
2023/12/28 11:31:54;;;;;;;20.98;4.00;;;;;;;;;;5073292;28;20051;-70
2023/12/28 11:34:30;;;;;;;24.75;4.38;;;;;;;;;;5073280;28;20036;-70
2023/12/28 11:36:57;;;;;;;22.98;3.70;;;;;;;;;;5073591;28;20040;-70
2023/12/28 11:39:33;;;;;;;20.92;4.50;;;;;;;;;;5073326;28;20492;-70
2023/12/28 11:42:05;;;;;;;21.50;4.43;;;;;;;;;;5074578;28;20098;-70
2023/12/28 11:44:31;;;;;;;19.95;3.55;;;;;;;;;;5056488;28;20127;-70
2023/12/28 11:46:57;;;;;;;20.40;4.63;;;;;;;;;;5073258;28;20512;-70
2023/12/28 11:49:28;;;;;;;26.55;4.70;;;;;;;;;;5072918;28;20186;-70
2023/12/28 11:51:55;;;;;;;23.27;4.00;;;;;;;;;;5074491;28;20056;-70
2023/12/28 11:54:21;;;;;;;18.13;3.95;;;;;;;;;;5074591;28;20093;-70
2023/12/28 11:56:47;;;;;;;20.35;4.03;;;;;;;;;;5072985;28;20476;-70
2023/12/28 11:59:13;;;;;;;25.10;4.80;;;;;;;;;;5072820;28;20047;-70
2023/12/28 12:01:39;;;;;;;20.70;4.30;;;;;;;;;;5072804;28;20055;-71
2023/12/28 12:04:07;;;;;;;26.77;4.93;;;;;;;;;;5072942;28;20098;-71
2023/12/28 12:06:33;;;;;;;24.05;4.35;;;;;;;;;;5056425;28;20703;-70
2023/12/28 12:08:59;;;;;;;31.77;4.85;;;;;;;;;;5074109;28;20045;-70
2023/12/28 12:11:27;;;;;;;24.42;4.55;;;;;;;;;;5073037;28;20079;-70
2023/12/28 12:13:53;;;;;;;24.85;4.18;;;;;;;;;;5073901;28;20037;-71
2023/12/28 12:16:19;;;;;;;26.83;4.95;;;;;;;;;;5074084;28;20052;-70
2023/12/28 12:18:46;;;;;;;22.85;4.63;;;;;;;;;;5074008;28;20048;-70
2023/12/28 12:21:12;;;;;;;21.65;4.32;;;;;;;;;;5074085;28;20036;-70
2023/12/28 12:23:38;;;;;;;27.17;4.70;;;;;;;;;;5072168;28;20127;-70
2023/12/28 12:26:08;;;;;;;26.75;4.18;;;;;;;;;;5072610;28;20480;-70
2023/12/28 12:28:34;;;;;;;25.42;4.60;;;;;;;;;;5072232;28;20041;-70
2023/12/28 12:31:02;;;;;;;22.40;4.68;;;;;;;;;;5073428;28;20409;-70
2023/12/28 12:33:28;;;;;;;23.40;4.50;;;;;;;;;;5072129;28;20047;-70
2023/12/28 12:35:54;;;;;;;27.42;4.13;;;;;;;;;;5073735;28;20047;-70
2023/12/28 12:38:20;;;;;;;24.73;4.82;;;;;;;;;;5072116;28;20412;-70
2023/12/28 12:40:46;;;;;;;20.85;4.20;;;;;;;;;;5072078;28;20044;-70
2023/12/28 12:43:12;;;;;;;32.58;6.18;;;;;;;;;;5072014;28;20051;-70
2023/12/28 12:45:39;;;;;;;25.15;4.57;;;;;;;;;;5071972;28;20048;-70
2023/12/28 12:48:05;;;;;;;28.40;4.95;;;;;;;;;;5071934;28;20188;-70
2023/12/28 12:50:32;;;;;;;23.20;4.97;;;;;;;;;;5071883;28;20086;-70
2023/12/28 12:53:02;;;;;;;27.25;4.70;;;;;;;;;;5073355;28;20075;-70
2023/12/28 12:55:28;;;;;;;25.30;4.32;;;;;;;;;;5073383;28;20036;-70
2023/12/28 12:57:55;;;;;;;27.08;4.63;;;;;;;;;;5071878;28;20048;-70
2023/12/28 13:00:22;;;;;;;28.98;4.55;;;;;;;;;;5073455;28;20049;-70
2023/12/28 13:02:51;;;;;;;25.70;4.47;;;;;;;;;;5072800;28;20471;-70
2023/12/28 13:05:18;;;;;;;25.73;4.43;;;;;;;;;;5071706;28;20048;-70
2023/12/28 13:07:44;;;;;;;31.13;5.30;;;;;;;;;;5071682;28;20047;-70
2023/12/28 13:10:10;;;;;;;23.38;4.50;;;;;;;;;;5071807;28;20044;-70
2023/12/28 13:12:36;;;;;;;22.83;4.60;;;;;;;;;;5071806;28;20055;-70
2023/12/28 13:15:02;;;;;;;22.33;4.70;;;;;;;;;;5071962;28;20098;-70
2023/12/28 13:17:28;;;;;;;31.65;4.57;;;;;;;;;;5071730;28;20040;-70
2023/12/28 13:19:54;;;;;;;24.08;4.30;;;;;;;;;;5071884;28;20041;-70
2023/12/28 13:22:21;;;;;;;25.30;4.55;;;;;;;;;;5071541;28;20497;-70
2023/12/28 13:24:47;;;;;;;30.40;4.78;;;;;;;;;;5071892;28;20041;-70
2023/12/28 13:27:14;;;;;;;19.73;4.35;;;;;;;;;;5071563;28;20044;-70
2023/12/28 13:29:40;;;;;;;31.52;6.15;;;;;;;;;;5072978;28;20045;-70
2023/12/28 13:32:06;;;;;;;23.17;4.32;;;;;;;;;;5071848;28;20086;-70
2023/12/28 13:34:32;;;;;;;24.30;4.93;;;;;;;;;;5073047;28;20040;-70
2023/12/28 13:37:01;;;;;;;27.73;5.18;;;;;;;;;;5075141;28;20033;-70
2023/12/28 13:39:28;;;;;;;23.27;4.53;;;;;;;;;;5076814;28;20082;-70
2023/12/28 13:41:54;;;;;;;27.02;4.45;;;;;;;;;;5076830;28;20144;-70
2023/12/28 13:44:20;;;;;;;22.73;4.43;;;;;;;;;;5075352;28;20051;-70
2023/12/28 13:46:46;;;;;;;22.10;4.25;;;;;;;;;;5075292;28;20048;-70
2023/12/28 13:49:12;;;;;;;23.90;3.67;;;;;;;;;;5075177;28;20045;-70
2023/12/28 13:51:38;;;;;;;29.15;5.25;;;;;;;;;;5075106;28;20037;-70
2023/12/28 13:54:05;;;;;;;30.40;4.85;;;;;;;;;;5075175;28;20041;-70
2023/12/28 13:56:31;;;;;;;24.58;4.57;;;;;;;;;;5075140;28;20051;-70
2023/12/28 13:58:57;;;;;;;25.20;4.82;;;;;;;;;;5075378;28;20044;-70
2023/12/28 14:01:23;;;;;;;23.52;4.07;;;;;;;;;;5075007;28;20510;-70
2023/12/28 14:03:51;;;;;;;31.92;5.30;;;;;;;;;;5074774;28;20574;-71
2023/12/28 14:06:18;;;;;;;22.77;4.75;;;;;;;;;;5075163;28;20049;-70
2023/12/28 14:08:44;;;;;;;29.85;5.03;;;;;;;;;;5076641;28;20052;-71
2023/12/28 14:11:10;;;;;;;26.95;4.68;;;;;;;;;;5076343;28;20040;-70
2023/12/28 14:13:36;;;;;;;26.98;4.28;;;;;;;;;;5076386;28;20037;-71
2023/12/28 14:16:03;;;;;;;23.27;4.25;;;;;;;;;;5074830;28;20036;-71
2023/12/28 14:18:29;;;;;;;26.65;4.70;;;;;;;;;;5058312;28;20048;-70
2023/12/28 14:20:55;;;;;;;28.27;5.15;;;;;;;;;;5076255;28;20032;-70
2023/12/28 14:23:21;;;;;;;26.15;5.05;;;;;;;;;;5076433;28;20504;-70
2023/12/28 14:25:53;;;;;;;29.65;5.25;;;;;;;;;;5074784;28;20489;-72